Time;durP1;ratioP1;P1;durP2;ratioP2;P2;SDS_P1;SDS_P2;PMS_P1;PMS_P2;Temp;Humidity;BMP_temperature;BMP_pressure;BME280_temperature;BME280_humidity;BME280_pressure;Samples;Min_cycle;Max_cycle;Signal;HPM_P1;HPM_P2
2022/08/02 00:00:09;;;;;;;3.83;3.03;;;;;;;17.34;56.46;100039.56;4920113;29;20555;-81
2022/08/02 00:02:36;;;;;;;5.25;3.08;;;;;;;17.39;56.50;100047.38;4920475;29;20570;-80
2022/08/02 00:05:04;;;;;;;5.13;3.00;;;;;;;17.13;56.66;100001.28;4920116;29;20059;-78
2022/08/02 00:07:32;;;;;;;4.05;2.90;;;;;;;17.14;56.69;99999.50;4919807;29;20115;-77
2022/08/02 00:10:09;;;;;;;3.45;2.97;;;;;;;17.33;56.73;100035.16;4925115;29;20067;-79
2022/08/02 00:12:37;;;;;;;;;;;;;;;17.12;56.52;100036.50;4922616;29;20052;-78
2022/08/02 00:15:06;;;;;;;2.95;2.75;;;;;;;17.17;56.82;100039.91;4919681;29;19927;-80
2022/08/02 00:17:33;;;;;;;4.85;2.83;;;;;;;17.14;57.10;100023.25;4919584;29;20059;-79
2022/08/02 00:20:01;;;;;;;5.25;3.30;;;;;;;17.21;57.21;100040.72;4919490;29;20530;-78
2022/08/02 00:22:29;;;;;;;4.82;2.90;;;;;;;17.19;57.18;100024.03;4921152;29;20139;-79
2022/08/02 00:24:56;;;;;;;3.67;3.10;;;;;;;17.20;57.31;100039.81;4924687;29;20510;-78
2022/08/02 00:27:23;;;;;;;3.20;3.00;;;;;;;17.17;57.32;100039.91;4922213;29;20059;-79
2022/08/02 00:29:50;;;;;;;5.65;3.45;;;;;;;17.11;57.42;100016.28;4902639;29;20066;-79
2022/08/02 00:32:21;;;;;;;4.07;2.92;;;;;;;17.12;57.74;100036.50;4917641;29;20047;-79
2022/08/02 00:34:49;;;;;;;3.45;3.10;;;;;;;17.07;57.55;100034.84;4914766;29;20052;-76
2022/08/02 00:37:16;;;;;;;4.47;3.40;;;;;;;17.08;57.82;100032.19;4937878;29;20052;-77
2022/08/02 00:39:43;;;;;;;4.13;3.60;;;;;;;17.02;58.08;100027.03;4942636;29;20036;-79
2022/08/02 00:42:14;;;;;;;4.32;3.25;;;;;;;16.98;58.10;100020.06;4943252;29;20049;-79
2022/08/02 00:44:41;;;;;;;4.15;3.10;;;;;;;16.99;58.21;100030.59;4943303;29;20059;-77
2022/08/02 00:47:09;;;;;;;5.97;3.42;;;;;;;16.97;58.10;100032.41;4943541;29;20100;-78
2022/08/02 00:49:36;;;;;;;7.97;3.40;;;;;;;16.95;58.42;100041.22;4942218;29;20076;-79
2022/08/02 00:52:04;;;;;;;5.28;3.40;;;;;;;16.83;58.55;100025.66;4922098;29;20055;-78
2022/08/02 00:54:31;;;;;;;5.32;3.85;;;;;;;16.65;58.50;99987.28;4919116;29;20115;-79
2022/08/02 00:56:58;;;;;;;4.90;3.50;;;;;;;16.90;58.47;100040.47;4919034;29;20075;-78
2022/08/02 00:59:25;;;;;;;3.90;3.60;;;;;;;16.75;58.82;100015.22;4918892;29;20103;-79
2022/08/02 01:01:52;;;;;;;6.57;3.78;;;;;;;16.85;58.94;100034.41;4918787;29;20060;-79
2022/08/02 01:04:27;;;;;;;4.70;3.63;;;;;;;16.80;59.01;100039.78;4918991;29;20063;-80
2022/08/02 01:07:05;;;;;;;5.80;3.75;;;;;;;16.77;59.31;100047.72;4918840;29;20147;-80
2022/08/02 01:09:41;;;;;;;3.85;3.45;;;;;;;16.70;59.29;100039.03;4919044;29;20060;-79
2022/08/02 01:12:09;;;;;;;4.38;3.55;;;;;;;16.64;59.41;100017.19;4918691;29;20507;-79
2022/08/02 01:14:37;;;;;;;6.43;3.97;;;;;;;16.58;59.49;100008.50;4918951;29;20510;-80
2022/08/02 01:17:23;;;;;;;6.13;3.55;;;;;;;16.73;59.50;100032.84;4933390;29;20056;-77
2022/08/02 01:19:56;;;;;;;3.60;3.30;;;;;;;16.70;59.55;100027.63;4918927;29;20586;-80
2022/08/02 01:22:46;;;;;;;6.30;3.70;;;;;;;16.69;59.62;100039.06;4919131;29;20051;-80
2022/08/02 01:25:52;;;;;;;4.20;3.50;;;;;;;16.57;59.47;100027.00;4917384;29;20429;-79
2022/08/02 01:28:22;;;;;;;;;;;;;;;16.44;59.30;100036.88;4933277;29;20147;-78
2022/08/02 01:30:56;;;;;;;4.22;3.67;;;;;;;16.47;59.67;100023.63;4918458;29;20397;-78
2022/08/02 01:33:31;;;;;;;3.70;3.22;;;;;;;16.41;59.80;99988.63;4918610;29;20063;-78
2022/08/02 01:36:01;;;;;;;5.32;3.30;;;;;;;16.67;60.01;100038.22;4918338;29;20502;-78
2022/08/02 01:38:37;;;;;;;6.07;3.53;;;;;;;16.46;59.90;99992.06;4918713;29;20060;-79
2022/08/02 01:41:06;;;;;;;5.60;3.70;;;;;;;16.70;59.90;100033.78;4918285;29;20054;-78
2022/08/02 01:43:35;;;;;;;;;;;;;;;16.50;59.73;100025.38;4918611;29;20434;-79
2022/08/02 01:46:04;;;;;;;4.00;3.30;;;;;;;16.67;59.96;100032.94;4931569;29;19919;-79
2022/08/02 01:48:33;;;;;;;5.23;3.80;;;;;;;16.65;59.92;100032.09;4922711;29;20147;-79
2022/08/02 01:51:03;;;;;;;4.27;3.87;;;;;;;16.64;59.96;100020.69;4918338;29;20299;-79
2022/08/02 01:53:31;;;;;;;5.50;3.42;;;;;;;16.74;59.94;100031.94;4918092;29;20396;-77
2022/08/02 01:56:00;;;;;;;4.35;3.60;;;;;;;16.61;59.66;99991.75;4918072;29;20056;-79
2022/08/02 01:58:32;;;;;;;5.57;3.75;;;;;;;16.93;59.48;100043.91;4918769;29;20096;-79
2022/08/02 02:01:01;;;;;;;6.82;4.03;;;;;;;16.97;59.28;100026.22;4917780;29;20056;-79
2022/08/02 02:03:31;;;;;;;4.82;4.10;;;;;;;17.07;59.09;100032.22;4917852;29;20083;-77
2022/08/02 02:06:02;;;;;;;4.53;3.72;;;;;;;17.16;59.00;100032.00;4918033;29;20120;-79
2022/08/02 02:08:42;;;;;;;4.88;3.97;;;;;;;17.18;58.53;100032.84;4918305;29;20056;-80
2022/08/02 02:11:09;;;;;;;4.18;3.42;;;;;;;17.23;58.57;100044.19;4917967;29;20111;-80
2022/08/02 02:14:01;;;;;;;5.90;4.13;;;;;;;17.14;58.34;100003.03;4928610;29;20050;-80
2022/08/02 02:16:30;;;;;;;5.80;3.67;;;;;;;17.28;58.17;100015.06;4936905;29;20102;-79
2022/08/02 02:19:01;;;;;;;7.53;3.97;;;;;;;17.42;57.96;100018.25;4937271;29;20055;-78
2022/08/02 02:21:28;;;;;;;5.57;3.95;;;;;;;17.63;57.73;100029.25;4936754;29;20072;-79
2022/08/02 02:23:58;;;;;;;8.23;3.92;;;;;;;17.71;57.41;100027.28;4936442;29;20066;-79
2022/08/02 02:26:27;;;;;;;4.18;3.70;;;;;;;17.61;57.02;100003.72;4936596;29;20585;-79
2022/08/02 02:29:05;;;;;;;4.53;3.60;;;;;;;17.73;56.79;100009.63;4936674;29;20506;-79
2022/08/02 02:31:36;;;;;;;8.38;4.13;;;;;;;18.03;56.60;100058.28;4936406;29;20429;-78
2022/08/02 02:34:09;;;;;;;4.20;3.80;;;;;;;18.17;56.13;100053.50;4925060;29;20421;-78
2022/08/02 02:36:40;;;;;;;5.43;3.97;;;;;;;18.25;55.87;100034.81;4900258;29;20080;-78
2022/08/02 02:39:10;;;;;;;5.20;4.50;;;;;;;18.42;55.57;100042.31;4916852;29;20499;-78
2022/08/02 02:41:42;;;;;;;5.75;3.92;;;;;;;18.51;55.13;100044.72;4919095;29;20130;-78
2022/08/02 02:44:13;;;;;;;5.25;3.72;;;;;;;18.75;54.48;100047.59;4935917;29;20103;-77
2022/08/02 02:46:42;;;;;;;4.68;3.97;;;;;;;18.86;53.79;100016.44;4936358;29;20078;-77
2022/08/02 02:49:10;;;;;;;7.25;4.28;;;;;;;20.17;50.63;100012.44;4936164;29;20058;-79
2022/08/02 02:51:41;;;;;;;4.15;3.75;;;;;;;22.25;46.17;100040.13;4928753;29;20059;-79
2022/08/02 02:54:10;;;;;;;6.28;3.97;;;;;;;24.37;41.09;100034.78;4917069;29;20574;-79
2022/08/02 02:56:59;;;;;;;6.00;3.60;;;;;;;26.46;36.94;100026.00;4924267;29;20035;-80
2022/08/02 02:59:27;;;;;;;6.05;3.95;;;;;;;27.40;35.05;100004.16;4926527;29;20052;-79
2022/08/02 03:01:55;;;;;;;5.13;4.13;;;;;;;28.57;33.21;100018.78;4917515;29;20055;-82
2022/08/02 03:04:27;;;;;;;6.53;4.05;;;;;;;29.72;31.13;100013.28;4900121;29;20056;-80
2022/08/02 03:07:15;;;;;;;5.55;4.03;;;;;;;31.08;29.11;100013.72;4915868;29;20052;-79
2022/08/02 03:09:42;;;;;;;5.82;3.92;;;;;;;32.20;27.35;100021.66;4915799;29;20522;-79
2022/08/02 03:12:10;;;;;;;6.97;3.67;;;;;;;33.12;26.11;99996.59;4915383;29;20131;-79
2022/08/02 03:14:42;;;;;;;4.40;4.03;;;;;;;34.08;24.71;99998.81;4932579;29;20111;-78
2022/08/02 03:17:09;;;;;;;7.20;3.83;;;;;;;35.04;23.45;100013.22;4935995;29;20059;-79
2022/08/02 03:19:36;;;;;;;7.40;3.70;;;;;;;35.89;22.59;100001.19;4935786;29;20063;-80
2022/08/02 03:22:03;;;;;;;4.80;3.70;;;;;;;36.66;21.33;100017.00;4935633;29;20055;-81
2022/08/02 03:24:31;;;;;;;5.32;3.67;;;;;;;37.41;20.86;100021.81;4949863;28;20064;-79
2022/08/02 03:26:58;;;;;;;6.07;4.00;;;;;;;37.66;20.43;100017.34;4935538;29;20142;-80
2022/08/02 03:29:25;;;;;;;6.57;4.07;;;;;;;38.41;19.41;100010.97;4935601;29;20055;-78
2022/08/02 03:31:52;;;;;;;7.13;3.97;;;;;;;38.97;18.59;100013.81;4935824;29;20498;-79
2022/08/02 03:34:20;;;;;;;4.18;3.78;;;;;;;39.23;18.41;100021.72;4929462;29;20056;-79
2022/08/02 03:36:50;;;;;;;5.80;4.20;;;;;;;39.67;17.99;100013.00;4916948;29;20060;-80
2022/08/02 03:39:19;;;;;;;5.55;4.18;;;;;;;39.70;17.38;100020.84;4916901;29;20060;-81
2022/08/02 03:41:48;;;;;;;5.78;3.83;;;;;;;40.11;17.74;100001.44;4916601;29;20123;-79
2022/08/02 03:44:16;;;;;;;4.93;4.45;;;;;;;40.95;16.41;100012.28;4917216;29;20052;-82
2022/08/02 03:46:44;;;;;;;8.30;4.05;;;;;;;41.66;15.93;100015.34;4916597;29;20510;-81
2022/08/02 03:49:14;;;;;;;6.30;3.85;;;;;;;41.78;15.71;100025.81;4930056;29;20052;-80
2022/08/02 03:51:41;;;;;;;6.97;4.30;;;;;;;41.47;15.89;100035.13;4936200;29;20056;-80
2022/08/02 03:54:09;;;;;;;8.65;4.35;;;;;;;40.47;16.44;100018.06;4953994;29;20059;-80
2022/08/02 03:56:36;;;;;;;6.05;4.60;;;;;;;40.49;16.31;100004.22;4927896;29;20208;-79
2022/08/02 03:59:12;;;;;;;5.40;4.20;;;;;;;41.16;16.49;100025.25;4932882;29;20143;-81
2022/08/02 04:01:40;;;;;;;5.15;4.10;;;;;;;41.51;15.66;100017.25;4924250;29;20478;-81
2022/08/02 04:04:07;;;;;;;5.05;4.47;;;;;;;41.24;16.03;100024.28;4915996;29;20067;-80
2022/08/02 04:06:34;;;;;;;5.95;4.25;;;;;;;40.37;16.56;100009.28;4916132;29;20146;-81
2022/08/02 04:09:08;;;;;;;6.07;4.63;;;;;;;37.42;19.25;99997.16;4929460;29;20092;-82
2022/08/02 04:11:36;;;;;;;13.10;4.93;;;;;;;34.01;23.41;100010.22;4919367;29;20080;-81
2022/08/02 04:14:08;;;;;;;12.63;5.25;;;;;;;32.41;25.60;100020.78;4916009;29;20131;-81
2022/08/02 04:16:44;;;;;;;10.40;5.20;;;;;;;31.54;26.52;100021.69;4915969;29;20131;-81
2022/08/02 04:19:40;;;;;;;9.18;5.63;;;;;;;30.74;27.65;100028.03;4926355;29;20119;-80
2022/08/02 04:22:15;;;;;;;11.07;5.25;;;;;;;30.07;28.70;100009.78;4924838;29;20054;-83
2022/08/02 04:24:54;;;;;;;10.25;5.18;;;;;;;29.56;29.70;100010.00;4935634;28;20471;-79
2022/08/02 04:27:24;;;;;;;10.45;4.97;;;;;;;29.08;30.66;99997.28;4934728;29;20067;-82
2022/08/02 04:30:16;;;;;;;6.63;4.72;;;;;;;28.89;31.23;100023.72;4934411;29;20056;-80
2022/08/02 04:32:44;;;;;;;9.00;5.30;;;;;;;28.45;31.63;100009.72;4949178;29;20123;-80
2022/08/02 04:35:12;;;;;;;7.75;4.47;;;;;;;28.30;32.22;100017.00;4934762;29;20098;-79
2022/08/02 04:37:47;;;;;;;7.45;4.72;;;;;;;28.05;32.42;100023.16;4937585;29;20516;-81
2022/08/02 04:40:54;;;;;;;12.85;5.03;;;;;;;27.45;33.42;100005.59;4937240;29;20084;-80
2022/08/02 04:43:27;;;;;;;8.73;4.78;;;;;;;27.47;33.98;100024.25;4901791;29;20051;-79
2022/08/02 04:45:54;;;;;;;12.77;5.07;;;;;;;27.30;34.29;100033.41;4918875;29;20055;-79
2022/08/02 04:48:22;;;;;;;7.85;4.63;;;;;;;27.21;34.45;100007.13;4918886;29;20541;-80
2022/08/02 04:50:50;;;;;;;7.03;4.78;;;;;;;27.18;34.89;100017.09;4918994;29;20059;-80
2022/08/02 04:53:18;;;;;;;8.55;4.63;;;;;;;27.09;34.72;100035.59;4918557;29;20063;-81
2022/08/02 04:55:45;;;;;;;8.18;4.43;;;;;;;26.96;35.28;100036.34;4934129;29;20056;-81
2022/08/02 04:58:13;;;;;;;9.70;4.90;;;;;;;26.71;35.49;100020.91;4919192;29;20168;-80
2022/08/02 05:01:00;;;;;;;6.40;4.35;;;;;;;26.73;35.73;100043.09;4919283;29;20063;-80
2022/08/02 05:03:28;;;;;;;11.90;4.93;;;;;;;26.77;35.65;100033.94;4918810;29;20533;-79
2022/08/02 05:05:54;;;;;;;10.43;4.45;;;;;;;26.63;36.02;100031.25;4918927;29;20060;-80
2022/08/02 05:08:22;;;;;;;7.05;4.75;;;;;;;26.69;36.29;100035.34;4917718;29;20048;-80
2022/08/02 05:10:49;;;;;;;7.35;4.88;;;;;;;26.75;36.24;100040.34;4918576;29;20136;-79
2022/08/02 05:13:16;;;;;;;10.02;5.07;;;;;;;26.64;36.04;100000.81;4918631;29;20048;-80
2022/08/02 05:15:43;;;;;;;7.22;4.35;;;;;;;26.83;36.04;100031.84;4919000;29;20391;-80
2022/08/02 05:18:11;;;;;;;8.13;4.40;;;;;;;26.47;36.29;100001.78;4918557;29;20056;-80
2022/08/02 05:20:39;;;;;;;9.88;4.47;;;;;;;26.47;36.54;100001.78;4934066;29;20032;-81
2022/08/02 05:23:06;;;;;;;7.15;4.28;;;;;;;26.44;36.61;100033.28;4919675;29;20063;-80
2022/08/02 05:25:33;;;;;;;6.72;4.10;;;;;;;26.44;36.63;100034.13;4918454;29;20060;-81
2022/08/02 05:28:00;;;;;;;9.25;4.57;;;;;;;26.40;36.83;100013.84;4918454;29;20051;-79
2022/08/02 05:30:27;;;;;;;8.98;4.53;;;;;;;26.27;37.01;100023.56;4918320;29;20079;-79
2022/08/02 05:32:54;;;;;;;9.88;4.57;;;;;;;26.28;37.18;100025.28;4918263;29;20056;-81
2022/08/02 05:35:23;;;;;;;5.07;3.53;;;;;;;26.19;36.92;100015.97;4918204;29;20067;-79
2022/08/02 05:37:51;;;;;;;;;;;;;;;25.89;37.20;100018.63;4918553;29;20056;-80
2022/08/02 05:40:18;;;;;;;8.70;3.97;;;;;;;26.30;37.00;100026.91;4918229;29;19927;-80
2022/08/02 05:42:53;;;;;;;6.15;3.38;;;;;;;26.27;36.56;100013.72;4918273;29;20079;-79
2022/08/02 05:45:21;;;;;;;9.20;3.53;;;;;;;26.31;36.30;100003.69;4918120;29;20056;-79
2022/08/02 05:47:48;;;;;;;4.22;3.80;;;;;;;26.35;36.87;100011.44;4917425;29;20142;-80
2022/08/02 05:50:15;;;;;;;15.15;5.30;;;;;;;26.50;37.02;100006.97;4918066;29;20060;-80
2022/08/02 05:52:45;;;;;;;4.20;3.75;;;;;;;26.63;36.11;100006.25;4918127;29;20059;-82
2022/08/02 05:55:33;;;;;;;7.57;3.38;;;;;;;26.07;36.28;99944.44;4901308;29;20056;-83
2022/08/02 05:58:25;;;;;;;3.72;2.63;;;;;;;26.49;35.83;99993.69;4918118;29;20056;-82
2022/08/02 06:00:55;;;;;;;6.63;3.13;;;;;;;26.46;35.85;99991.19;4918187;29;20517;-81
2022/08/02 06:03:38;;;;;;;3.90;3.35;;;;;;;26.40;35.90;99989.75;4917894;29;20060;-80
2022/08/02 06:06:14;;;;;;;3.88;3.17;;;;;;;26.28;35.68;99987.78;4917883;29;20116;-79
2022/08/02 06:08:58;;;;;;;5.13;3.40;;;;;;;26.14;35.96;99985.94;4918264;29;20079;-81
2022/08/02 06:11:37;;;;;;;7.47;3.10;;;;;;;26.36;36.28;99993.56;4917876;29;20123;-80
2022/08/02 06:14:06;;;;;;;5.47;3.40;;;;;;;26.39;35.55;99966.59;4912856;29;20059;-81
2022/08/02 06:16:34;;;;;;;5.37;3.13;;;;;;;26.40;35.48;99994.25;4917651;29;20083;-82
2022/08/02 06:19:10;;;;;;;4.78;2.90;;;;;;;26.43;35.58;99983.34;4903050;29;20806;-82
2022/08/02 06:21:41;;;;;;;4.10;2.80;;;;;;;26.27;35.16;99960.16;4918589;29;20084;-81
2022/08/02 06:24:30;;;;;;;4.20;2.97;;;;;;;26.40;35.11;99992.41;4918207;29;20499;-80
2022/08/02 06:26:59;;;;;;;5.45;2.83;;;;;;;26.29;35.22;99993.06;4917851;29;20058;-78
2022/08/02 06:29:27;;;;;;;4.60;2.53;;;;;;;26.22;35.30;99983.69;4918112;29;20083;-81
2022/08/02 06:31:55;;;;;;;5.70;2.78;;;;;;;26.04;35.54;99944.63;4931725;29;20060;-81
2022/08/02 06:34:22;;;;;;;5.55;2.63;;;;;;;26.28;35.32;99994.00;4917244;29;20056;-81
2022/08/02 06:37:06;;;;;;;6.70;2.80;;;;;;;26.06;35.45;99966.81;4918049;29;20060;-80
2022/08/02 06:40:03;;;;;;;3.80;2.67;;;;;;;25.85;35.33;99955.50;4917590;29;20186;-80
2022/08/02 06:42:47;;;;;;;6.28;2.95;;;;;;;25.92;35.76;99987.22;4873912;29;20119;-81
2022/08/02 06:45:15;;;;;;;4.88;2.78;;;;;;;26.03;35.71;99994.63;4917501;29;20079;-81
2022/08/02 06:47:42;;;;;;;6.70;3.08;;;;;;;25.88;35.94;99953.56;4917513;29;20070;-80
2022/08/02 06:50:10;;;;;;;9.43;3.15;;;;;;;26.09;36.28;99988.03;4916907;29;20468;-82
2022/08/02 06:52:37;;;;;;;5.78;2.75;;;;;;;26.31;35.37;99980.44;4917728;29;20056;-81
2022/08/02 06:55:05;;;;;;;4.13;2.60;;;;;;;26.40;34.80;99980.84;4916680;29;20426;-81
2022/08/02 06:57:33;;;;;;;5.40;2.70;;;;;;;26.67;34.32;99981.88;4917122;29;20100;-80
2022/08/02 07:00:01;;;;;;;2.60;2.40;;;;;;;26.84;33.76;99971.91;4899938;29;20099;-81
2022/08/02 07:02:31;;;;;;;5.20;2.40;;;;;;;26.83;33.85;99984.47;4900202;29;20510;-81
2022/08/02 07:04:58;;;;;;;3.53;2.50;;;;;;;26.96;34.20;99977.38;4917018;29;20052;-80
2022/08/02 07:07:26;;;;;;;6.85;3.10;;;;;;;26.90;34.27;99958.13;4916847;29;20075;-81
2022/08/02 07:09:53;;;;;;;5.40;2.30;;;;;;;27.03;32.96;99977.84;4917061;29;20048;-81
2022/08/02 07:12:33;;;;;;;3.67;2.30;;;;;;;26.62;33.41;99983.97;4917230;29;20518;-82
2022/08/02 07:15:03;;;;;;;4.25;2.53;;;;;;;26.52;34.18;99975.63;4917377;29;20100;-80
2022/08/02 07:17:32;;;;;;;4.45;2.47;;;;;;;26.70;33.44;99959.41;4917181;29;20056;-80
2022/08/02 07:20:00;;;;;;;5.10;2.45;;;;;;;26.98;33.26;99969.25;4916241;29;20143;-79
2022/08/02 07:22:29;;;;;;;4.93;2.40;;;;;;;27.07;33.46;99965.97;4913767;29;20078;-82
2022/08/02 07:24:58;;;;;;;5.22;2.50;;;;;;;27.06;34.00;99971.41;4916061;29;20073;-81
2022/08/02 07:27:27;;;;;;;5.93;2.88;;;;;;;27.13;33.96;99970.09;4897030;29;20064;-83
2022/08/02 07:29:54;;;;;;;2.92;2.67;;;;;;;27.32;32.92;99962.63;4913806;29;20668;-81
2022/08/02 07:32:24;;;;;;;5.57;2.72;;;;;;;27.44;33.00;99978.88;4915655;29;20095;-82
2022/08/02 07:34:53;;;;;;;3.85;2.60;;;;;;;27.23;32.62;99930.16;4926211;29;20051;-82
2022/08/02 07:37:24;;;;;;;3.33;2.75;;;;;;;27.43;32.48;99967.28;4924262;29;20083;-81
2022/08/02 07:40:13;;;;;;;2.65;2.45;;;;;;;27.39;32.36;99938.09;4934042;29;20048;-81
2022/08/02 07:42:52;;;;;;;4.60;2.75;;;;;;;27.55;32.30;99961.13;4947439;29;20056;-79
2022/08/02 07:45:26;;;;;;;2.55;2.35;;;;;;;27.44;31.36;99910.00;4925856;29;20056;-80
2022/08/02 07:47:53;;;;;;;2.40;2.13;;;;;;;28.00;30.67;99941.22;4915728;29;20403;-81
2022/08/02 07:50:20;;;;;;;4.65;2.63;;;;;;;28.49;30.37;99970.09;4915825;29;20060;-80
2022/08/02 07:52:48;;;;;;;6.30;3.22;;;;;;;28.50;29.08;99958.38;4898884;29;20052;-80
2022/08/02 07:55:23;;;;;;;2.53;2.30;;;;;;;28.26;29.78;99952.84;4915542;29;20403;-80
2022/08/02 07:58:10;;;;;;;2.92;2.40;;;;;;;27.86;30.21;99953.75;4916003;29;20052;-80
2022/08/02 08:00:42;;;;;;;2.47;2.28;;;;;;;27.91;30.34;99973.06;4919785;29;20079;-81
2022/08/02 08:03:10;;;;;;;2.47;1.77;;;;;;;28.12;29.68;99973.47;4915471;29;20399;-80
2022/08/02 08:05:36;;;;;;;4.18;2.53;;;;;;;28.03;29.75;99968.72;4915584;29;20055;-80
2022/08/02 08:08:04;;;;;;;3.55;2.65;;;;;;;28.11;30.12;99952.06;4898440;29;20059;-78
2022/08/02 08:10:32;;;;;;;3.05;2.35;;;;;;;28.27;29.07;99963.50;4915251;29;20091;-78
2022/08/02 08:12:59;;;;;;;6.18;4.32;;;;;;;27.92;29.53;99918.44;4916991;29;20092;-79
2022/08/02 08:15:26;;;;;;;8.18;5.22;;;;;;;28.01;30.35;99959.91;4918662;29;20058;-79
2022/08/02 08:17:53;;;;;;;10.02;4.68;;;;;;;28.16;30.40;99974.97;4918914;29;20063;-79
2022/08/02 08:20:21;;;;;;;3.28;2.70;;;;;;;28.64;29.58;99958.28;4918947;29;20060;-80
2022/08/02 08:22:49;;;;;;;4.10;2.33;;;;;;;28.61;29.68;99965.69;4919220;29;20149;-80
2022/08/02 08:25:16;;;;;;;2.50;2.30;;;;;;;28.33;29.91;99952.34;4860401;29;1260709;-81
2022/08/02 08:27:51;;;;;;;2.85;2.03;;;;;;;28.11;29.97;99976.25;4921459;29;20082;-81
2022/08/02 08:30:21;;;;;;;2.38;2.17;;;;;;;27.75;30.33;99948.22;4924360;29;20071;-79
2022/08/02 08:32:49;;;;;;;4.20;2.40;;;;;;;27.68;30.72;99966.50;4929371;29;20087;-79
2022/08/02 08:35:16;;;;;;;3.85;2.30;;;;;;;27.86;30.78;99959.13;4927535;29;20070;-79
2022/08/02 08:37:43;;;;;;;2.47;2.20;;;;;;;28.01;30.28;99927.69;4924754;29;20567;-82
2022/08/02 08:40:11;;;;;;;3.40;2.20;;;;;;;28.27;30.47;99960.81;4919572;29;20388;-80
2022/08/02 08:42:45;;;;;;;5.88;2.10;;;;;;;28.29;30.20;99961.56;4919467;29;20067;-80
2022/08/02 08:45:12;;;;;;;2.65;1.95;;;;;;;28.35;29.93;99963.84;4919195;29;20479;-81
2022/08/02 08:47:41;;;;;;;5.57;2.28;;;;;;;28.15;29.87;99913.31;4919110;29;20510;-81
2022/08/02 08:50:17;;;;;;;2.10;1.90;;;;;;;27.87;30.29;99958.13;4925438;29;20086;-78
2022/08/02 08:53:02;;;;;;;3.15;2.10;;;;;;;27.55;30.93;99957.56;4925096;29;20055;-78
2022/08/02 08:55:30;;;;;;;2.30;2.10;;;;;;;27.36;30.92;99944.50;4918963;29;20470;-80
2022/08/02 08:57:59;;;;;;;2.50;1.95;;;;;;;27.04;31.29;99934.00;4919043;29;20257;-80
2022/08/02 09:00:29;;;;;;;4.90;2.25;;;;;;;26.91;31.56;99939.28;4918479;29;20080;-81
2022/08/02 09:02:56;;;;;;;2.78;2.50;;;;;;;27.00;31.84;99937.00;4921277;29;20441;-82
2022/08/02 09:05:24;;;;;;;4.00;1.90;;;;;;;27.15;31.62;99923.44;4937518;29;20067;-82
2022/08/02 09:07:52;;;;;;;3.10;2.22;;;;;;;27.44;30.93;99942.16;4937244;28;20453;-79
2022/08/02 09:10:40;;;;;;;4.80;2.28;;;;;;;27.69;30.79;99921.78;4937571;28;20055;-82
2022/08/02 09:13:28;;;;;;;3.10;2.00;;;;;;;27.92;29.99;99921.13;4937400;29;20060;-79
2022/08/02 09:16:12;;;;;;;2.20;2.10;;;;;;;27.41;30.83;99920.06;4937607;29;20048;-79
2022/08/02 09:18:43;;;;;;;3.03;1.95;;;;;;;27.27;30.56;99937.91;4925294;29;20052;-78
2022/08/02 09:21:13;;;;;;;2.85;2.08;;;;;;;26.94;31.03;99906.06;4918308;29;20075;-80
2022/08/02 09:23:46;;;;;;;3.75;2.40;;;;;;;27.15;31.13;99933.31;4917075;29;20532;-81
2022/08/02 09:26:21;;;;;;;2.08;1.95;;;;;;;27.18;31.11;99907.16;4918391;29;20082;-80
2022/08/02 09:29:00;;;;;;;3.47;1.92;;;;;;;27.55;30.83;99920.00;4918259;29;20052;-80
2022/08/02 09:31:27;;;;;;;5.22;2.45;;;;;;;28.07;29.64;99910.28;4918184;29;20447;-81
2022/08/02 09:33:57;;;;;;;3.95;2.10;;;;;;;28.66;28.86;99907.13;4918434;29;20052;-79
2022/08/02 09:36:24;;;;;;;;;;;;;;;28.56;29.05;99917.66;4918845;29;20055;-81
2022/08/02 09:39:02;;;;;;;4.40;2.80;;;;;;;28.84;28.32;99913.84;4921161;29;19927;-80
2022/08/02 09:41:32;;;;;;;2.72;2.38;;;;;;;28.85;27.92;99903.97;4913907;29;20068;-79
2022/08/02 09:44:01;;;;;;;2.70;2.03;;;;;;;28.57;28.20;99925.59;4935820;29;20070;-79
2022/08/02 09:46:42;;;;;;;2.47;2.20;;;;;;;28.06;28.83;99909.44;4936732;29;20078;-77
2022/08/02 09:49:15;;;;;;;3.38;1.85;;;;;;;27.55;29.24;99871.72;4941304;29;20052;-80
2022/08/02 09:51:45;;;;;;;3.38;2.00;;;;;;;27.92;29.57;99906.81;4940090;29;20060;-80
2022/08/02 09:54:27;;;;;;;2.85;2.00;;;;;;;28.18;28.71;99892.50;4936078;29;20077;-81
2022/08/02 09:56:57;;;;;;;4.50;2.00;;;;;;;28.50;28.34;99910.91;4946027;29;20044;-82
2022/08/02 09:59:26;;;;;;;2.85;2.13;;;;;;;28.39;28.75;99863.28;4945640;29;20044;-80
2022/08/02 10:01:56;;;;;;;3.17;2.20;;;;;;;28.65;28.03;99906.25;4950148;29;20060;-82
2022/08/02 10:04:31;;;;;;;3.10;2.00;;;;;;;28.87;28.36;99915.47;4937464;29;20055;-80
2022/08/02 10:07:02;;;;;;;2.70;2.10;;;;;;;28.94;28.16;99904.16;4936677;29;20048;-81
2022/08/02 10:09:31;;;;;;;3.60;2.30;;;;;;;28.73;28.29;99862.69;4935254;29;20047;-80
2022/08/02 10:11:59;;;;;;;2.00;1.83;;;;;;;28.94;27.73;99914.06;4918265;29;20060;-80
2022/08/02 10:14:28;;;;;;;2.10;2.00;;;;;;;28.48;28.39;99895.81;4918416;29;20055;-80
2022/08/02 10:16:56;;;;;;;2.67;1.80;;;;;;;28.05;28.86;99909.53;4917628;29;20060;-81
2022/08/02 10:19:23;;;;;;;3.17;2.38;;;;;;;28.07;28.76;99900.44;4916551;29;20510;-80
2022/08/02 10:22:13;;;;;;;3.00;2.10;;;;;;;28.08;28.68;99903.97;4917403;29;20052;-80
2022/08/02 10:24:43;;;;;;;2.17;1.95;;;;;;;28.19;28.47;99901.41;4917027;29;20060;-79
2022/08/02 10:27:18;;;;;;;4.82;2.13;;;;;;;28.42;28.34;99888.19;4917371;29;20056;-80
2022/08/02 10:29:49;;;;;;;2.17;1.98;;;;;;;28.12;28.35;99902.78;4917166;29;20617;-81
2022/08/02 10:32:25;;;;;;;3.15;1.95;;;;;;;28.06;28.72;99889.78;4917114;29;20052;-80
2022/08/02 10:35:20;;;;;;;2.15;1.63;;;;;;;28.20;28.57;99889.69;4916315;29;20474;-79
2022/08/02 10:37:59;;;;;;;3.55;1.88;;;;;;;28.24;28.69;99895.69;4916826;29;20502;-79
2022/08/02 10:40:46;;;;;;;2.45;2.25;;;;;;;28.42;28.62;99886.38;4917656;29;20063;-80
2022/08/02 10:43:35;;;;;;;3.38;1.95;;;;;;;28.54;28.53;99890.88;4915615;29;20523;-79
2022/08/02 10:46:21;;;;;;;3.35;2.10;;;;;;;28.52;28.44;99887.47;4930250;29;20055;-81
2022/08/02 10:49:01;;;;;;;4.40;1.92;;;;;;;28.66;28.31;99878.41;4935686;29;20127;-81
2022/08/02 10:52:01;;;;;;;4.00;2.40;;;;;;;28.98;27.42;99883.28;4935654;29;20438;-80
2022/08/02 10:54:57;;;;;;;2.40;1.75;;;;;;;29.08;27.53;99873.59;4935851;29;20146;-80
2022/08/02 10:57:35;;;;;;;2.95;1.98;;;;;;;29.20;27.64;99887.97;4935724;29;20107;-80
2022/08/02 11:00:11;;;;;;;1.80;1.70;;;;;;;29.12;27.70;99880.47;4935640;29;20150;-80
2022/08/02 11:02:45;;;;;;;3.50;1.90;;;;;;;29.20;27.63;99896.91;4935934;29;20055;-80
2022/08/02 11:05:33;;;;;;;2.53;1.83;;;;;;;28.97;27.30;99836.75;4936008;29;20115;-80
2022/08/02 11:08:18;;;;;;;2.85;1.83;;;;;;;29.27;26.95;99886.53;4936045;29;20087;-79
2022/08/02 11:10:45;;;;;;;1.90;1.80;;;;;;;29.16;27.38;99873.88;4950830;29;20513;-81
2022/08/02 11:13:15;;;;;;;2.78;2.10;;;;;;;29.01;27.89;99872.31;4935928;29;20158;-78
2022/08/02 11:15:51;;;;;;;;;;;;;;;28.73;28.41;99874.31;4936032;29;20089;-77
2022/08/02 11:18:20;;;;;;;1.85;1.75;;;;;;;28.92;26.96;99873.84;4935950;29;19950;-77
2022/08/02 11:21:27;;;;;;;1.87;1.60;;;;;;;29.08;27.21;99862.84;4936076;29;20088;-78
2022/08/02 11:23:54;;;;;;;4.53;2.10;;;;;;;29.18;27.60;99866.56;4935978;29;20060;-78
2022/08/02 11:26:31;;;;;;;1.80;1.70;;;;;;;29.14;27.24;99866.91;4935389;29;20410;-79
2022/08/02 11:29:00;;;;;;;1.80;1.70;;;;;;;28.99;27.17;99841.97;4927371;29;20066;-77
2022/08/02 11:31:36;;;;;;;2.20;2.10;;;;;;;28.94;27.77;99873.72;4916379;29;20063;-78
2022/08/02 11:34:05;;;;;;;2.13;1.92;;;;;;;28.73;27.90;99876.13;4916580;29;20056;-78
2022/08/02 11:36:46;;;;;;;2.75;1.67;;;;;;;28.40;28.16;99845.31;4916182;29;20507;-78
2022/08/02 11:39:19;;;;;;;2.83;1.95;;;;;;;28.32;28.34;99864.66;4916249;29;20062;-77
2022/08/02 11:41:56;;;;;;;2.22;1.98;;;;;;;28.15;28.80;99873.88;4916417;29;20141;-78
2022/08/02 11:44:26;;;;;;;2.10;1.70;;;;;;;27.97;29.03;99873.34;4930816;29;20119;-77
2022/08/02 11:47:02;;;;;;;2.30;1.92;;;;;;;27.80;28.94;99833.34;4917789;29;20095;-79
2022/08/02 11:49:29;;;;;;;1.98;1.88;;;;;;;28.10;28.57;99886.78;4919856;29;20415;-80
2022/08/02 11:52:14;;;;;;;3.25;2.50;;;;;;;27.75;28.93;99871.25;4919873;29;20570;-79
2022/08/02 11:54:42;;;;;;;2.17;2.08;;;;;;;27.65;28.92;99837.09;4919714;29;20063;-76